sensor_id;sensor_type;location;lat;lon;timestamp;P1;durP1;ratioP1;P2;durP2;ratioP2
46983;SDS011;34732;52.112;9.366;2023-03-14T06:43:32;14.70;;;1.38;;
46983;SDS011;34732;52.112;9.366;2023-03-14T06:47:01;14.20;;;1.63;;
46983;SDS011;34732;52.112;9.366;2023-03-14T06:50:26;5.93;;;1.20;;
46983;SDS011;34732;52.112;9.366;2023-03-14T06:53:51;5.43;;;0.80;;
46983;SDS011;34732;52.112;9.366;2023-03-14T06:57:17;6.70;;;1.25;;
46983;SDS011;34732;52.112;9.366;2023-03-14T07:00:41;5.13;;;1.30;;
46983;SDS011;34732;52.112;9.366;2023-03-14T07:04:09;3.30;;;0.70;;
46983;SDS011;34732;52.112;9.366;2023-03-14T07:07:42;5.63;;;0.90;;
46983;SDS011;34732;52.112;9.366;2023-03-14T07:11:10;3.55;;;0.77;;
46983;SDS011;34732;52.112;9.366;2023-03-14T07:14:41;4.15;;;0.90;;
46983;SDS011;34732;52.112;9.366;2023-03-14T07:18:03;4.80;;;1.00;;
46983;SDS011;34732;52.112;9.366;2023-03-14T07:21:26;5.22;;;0.80;;
46983;SDS011;34732;52.112;9.366;2023-03-14T07:28:42;6.57;;;0.80;;
46983;SDS011;34732;52.112;9.366;2023-03-14T07:32:14;2.90;;;0.75;;
46983;SDS011;34732;52.112;9.366;2023-03-14T07:35:40;6.25;;;1.10;;
46983;SDS011;34732;52.112;9.366;2023-03-14T07:39:07;3.05;;;0.65;;
46983;SDS011;34732;52.112;9.366;2023-03-14T07:42:53;4.97;;;1.10;;
46983;SDS011;34732;52.112;9.366;2023-03-14T07:46:24;6.20;;;0.82;;
46983;SDS011;34732;52.112;9.366;2023-03-14T07:49:50;7.15;;;0.95;;
46983;SDS011;34732;52.112;9.366;2023-03-14T07:53:16;16.77;;;1.52;;
46983;SDS011;34732;52.112;9.366;2023-03-14T07:56:40;15.45;;;1.17;;
46983;SDS011;34732;52.112;9.366;2023-03-14T08:00:06;8.60;;;1.13;;
46983;SDS011;34732;52.112;9.366;2023-03-14T08:03:36;8.25;;;0.90;;
46983;SDS011;34732;52.112;9.366;2023-03-14T08:07:02;5.75;;;1.10;;
46983;SDS011;34732;52.112;9.366;2023-03-14T08:10:23;3.50;;;1.02;;
46983;SDS011;34732;52.112;9.366;2023-03-14T08:13:51;5.38;;;1.02;;
46983;SDS011;34732;52.112;9.366;2023-03-14T08:17:12;5.22;;;0.73;;
46983;SDS011;34732;52.112;9.366;2023-03-14T08:20:34;5.43;;;0.80;;
46983;SDS011;34732;52.112;9.366;2023-03-14T08:24:01;5.60;;;0.73;;
46983;SDS011;34732;52.112;9.366;2023-03-14T08:27:27;3.83;;;0.68;;
46983;SDS011;34732;52.112;9.366;2023-03-14T08:30:53;3.45;;;0.73;;
46983;SDS011;34732;52.112;9.366;2023-03-14T08:34:15;3.83;;;0.80;;
46983;SDS011;34732;52.112;9.366;2023-03-14T08:37:39;6.72;;;0.93;;
46983;SDS011;34732;52.112;9.366;2023-03-14T08:41:02;3.63;;;1.00;;
46983;SDS011;34732;52.112;9.366;2023-03-14T08:44:26;2.75;;;0.50;;
46983;SDS011;34732;52.112;9.366;2023-03-14T08:47:54;3.28;;;0.80;;
46983;SDS011;34732;52.112;9.366;2023-03-14T08:51:18;2.08;;;0.60;;
46983;SDS011;34732;52.112;9.366;2023-03-14T08:54:45;2.53;;;0.60;;
46983;SDS011;34732;52.112;9.366;2023-03-14T08:58:11;3.75;;;0.77;;
46983;SDS011;34732;52.112;9.366;2023-03-14T09:01:34;2.80;;;0.50;;
46983;SDS011;34732;52.112;9.366;2023-03-14T09:04:58;1.30;;;0.43;;
46983;SDS011;34732;52.112;9.366;2023-03-14T09:08:23;1.65;;;0.40;;
46983;SDS011;34732;52.112;9.366;2023-03-14T09:11:47;3.33;;;0.43;;
46983;SDS011;34732;52.112;9.366;2023-03-14T09:15:08;2.38;;;0.63;;
46983;SDS011;34732;52.112;9.366;2023-03-14T09:18:32;0.93;;;0.50;;
46983;SDS011;34732;52.112;9.366;2023-03-14T09:21:58;1.92;;;0.50;;
46983;SDS011;34732;52.112;9.366;2023-03-14T09:25:25;1.05;;;0.40;;
46983;SDS011;34732;52.112;9.366;2023-03-14T09:28:49;1.67;;;0.50;;
46983;SDS011;34732;52.112;9.366;2023-03-14T09:32:15;2.20;;;0.73;;
46983;SDS011;34732;52.112;9.366;2023-03-14T09:35:38;1.55;;;0.38;;
46983;SDS011;34732;52.112;9.366;2023-03-14T09:39:06;0.60;;;0.30;;
46983;SDS011;34732;52.112;9.366;2023-03-14T09:42:37;1.55;;;0.55;;
46983;SDS011;34732;52.112;9.366;2023-03-14T09:46:03;1.05;;;0.40;;
46983;SDS011;34732;52.112;9.366;2023-03-14T09:49:29;1.27;;;0.52;;
46983;SDS011;34732;52.112;9.366;2023-03-14T09:52:56;1.60;;;0.38;;
46983;SDS011;34732;52.112;9.366;2023-03-14T09:56:21;1.00;;;0.40;;
46983;SDS011;34732;52.112;9.366;2023-03-14T09:59:52;0.65;;;0.47;;
46983;SDS011;34732;52.112;9.366;2023-03-14T10:06:47;0.93;;;0.35;;
46983;SDS011;34732;52.112;9.366;2023-03-14T10:10:19;1.25;;;0.40;;
46983;SDS011;34732;52.112;9.366;2023-03-14T10:14:01;0.55;;;0.30;;
46983;SDS011;34732;52.112;9.366;2023-03-14T10:20:49;0.47;;;0.30;;
46983;SDS011;34732;52.112;9.366;2023-03-14T10:27:51;2.65;;;0.43;;
46983;SDS011;34732;52.112;9.366;2023-03-14T10:31:17;1.20;;;0.38;;
46983;SDS011;34732;52.112;9.366;2023-03-14T10:34:38;0.20;;;0.20;;
46983;SDS011;34732;52.112;9.366;2023-03-14T10:38:00;0.40;;;0.32;;
46983;SDS011;34732;52.112;9.366;2023-03-14T10:41:26;0.60;;;0.30;;
46983;SDS011;34732;52.112;9.366;2023-03-14T10:44:55;0.57;;;0.40;;
46983;SDS011;34732;52.112;9.366;2023-03-14T10:51:45;0.57;;;0.20;;
46983;SDS011;34732;52.112;9.366;2023-03-14T10:55:10;0.20;;;0.20;;
46983;SDS011;34732;52.112;9.366;2023-03-14T10:58:41;1.60;;;0.40;;
46983;SDS011;34732;52.112;9.366;2023-03-14T11:05:56;0.30;;;0.30;;
46983;SDS011;34732;52.112;9.366;2023-03-14T11:16:26;0.68;;;0.30;;
46983;SDS011;34732;52.112;9.366;2023-03-14T11:38:11;1.45;;;0.25;;
46983;SDS011;34732;52.112;9.366;2023-03-14T11:41:38;1.30;;;0.40;;
46983;SDS011;34732;52.112;9.366;2023-03-14T11:45:03;0.80;;;0.50;;
46983;SDS011;34732;52.112;9.366;2023-03-14T11:48:44;0.30;;;0.30;;
46983;SDS011;34732;52.112;9.366;2023-03-14T11:52:16;2.53;;;0.50;;
46983;SDS011;34732;52.112;9.366;2023-03-14T11:55:45;0.47;;;0.30;;
46983;SDS011;34732;52.112;9.366;2023-03-14T11:59:58;0.80;;;0.38;;
46983;SDS011;34732;52.112;9.366;2023-03-14T12:06:49;0.85;;;0.35;;
46983;SDS011;34732;52.112;9.366;2023-03-14T12:10:19;0.47;;;0.30;;
46983;SDS011;34732;52.112;9.366;2023-03-14T12:13:40;0.70;;;0.30;;
46983;SDS011;34732;52.112;9.366;2023-03-14T12:20:59;0.57;;;0.30;;
46983;SDS011;34732;52.112;9.366;2023-03-14T12:24:27;0.60;;;0.40;;
46983;SDS011;34732;52.112;9.366;2023-03-14T12:34:54;1.95;;;0.43;;
46983;SDS011;34732;52.112;9.366;2023-03-14T12:41:46;0.30;;;0.30;;
46983;SDS011;34732;52.112;9.366;2023-03-14T12:45:21;0.98;;;0.38;;
46983;SDS011;34732;52.112;9.366;2023-03-14T12:59:50;0.63;;;0.47;;
46983;SDS011;34732;52.112;9.366;2023-03-14T13:13:52;0.30;;;0.20;;
46983;SDS011;34732;52.112;9.366;2023-03-14T13:17:24;0.95;;;0.30;;
46983;SDS011;34732;52.112;9.366;2023-03-14T13:21:42;0.95;;;0.30;;
46983;SDS011;34732;52.112;9.366;2023-03-14T13:24:44;0.95;;;0.32;;
46983;SDS011;34732;52.112;9.366;2023-03-14T13:28:08;1.90;;;0.40;;
46983;SDS011;34732;52.112;9.366;2023-03-14T13:31:35;0.35;;;0.22;;
46983;SDS011;34732;52.112;9.366;2023-03-14T13:34:59;1.08;;;0.40;;
46983;SDS011;34732;52.112;9.366;2023-03-14T13:38:24;0.60;;;0.30;;
46983;SDS011;34732;52.112;9.366;2023-03-14T13:41:49;0.73;;;0.40;;
46983;SDS011;34732;52.112;9.366;2023-03-14T13:45:13;0.50;;;0.20;;
46983;SDS011;34732;52.112;9.366;2023-03-14T13:48:35;0.65;;;0.30;;
46983;SDS011;34732;52.112;9.366;2023-03-14T13:52:20;2.67;;;0.40;;
46983;SDS011;34732;52.112;9.366;2023-03-14T13:55:46;3.05;;;0.40;;
46983;SDS011;34732;52.112;9.366;2023-03-14T13:59:22;1.17;;;0.30;;
46983;SDS011;34732;52.112;9.366;2023-03-14T14:02:43;1.57;;;0.37;;
46983;SDS011;34732;52.112;9.366;2023-03-14T14:06:10;1.23;;;0.40;;
46983;SDS011;34732;52.112;9.366;2023-03-14T14:09:47;2.20;;;0.38;;
46983;SDS011;34732;52.112;9.366;2023-03-14T14:13:15;1.63;;;0.30;;
46983;SDS011;34732;52.112;9.366;2023-03-14T14:16:39;1.63;;;0.40;;
46983;SDS011;34732;52.112;9.366;2023-03-14T14:20:12;0.20;;;0.20;;
46983;SDS011;34732;52.112;9.366;2023-03-14T14:23:42;1.02;;;0.30;;
46983;SDS011;34732;52.112;9.366;2023-03-14T14:30:33;0.20;;;0.20;;
46983;SDS011;34732;52.112;9.366;2023-03-14T14:33:57;1.00;;;0.45;;
46983;SDS011;34732;52.112;9.366;2023-03-14T14:40:59;1.40;;;0.30;;
46983;SDS011;34732;52.112;9.366;2023-03-14T14:44:26;2.40;;;0.40;;
46983;SDS011;34732;52.112;9.366;2023-03-14T14:47:55;1.80;;;0.32;;
46983;SDS011;34732;52.112;9.366;2023-03-14T14:51:25;1.60;;;0.60;;
46983;SDS011;34732;52.112;9.366;2023-03-14T15:01:44;3.38;;;0.40;;
46983;SDS011;34732;52.112;9.366;2023-03-14T15:05:15;1.75;;;0.40;;
46983;SDS011;34732;52.112;9.366;2023-03-14T15:08:50;4.88;;;0.70;;
46983;SDS011;34732;52.112;9.366;2023-03-14T15:12:16;2.80;;;0.50;;
46983;SDS011;34732;52.112;9.366;2023-03-14T15:15:39;1.48;;;0.40;;
46983;SDS011;34732;52.112;9.366;2023-03-14T15:19:12;4.25;;;0.50;;
46983;SDS011;34732;52.112;9.366;2023-03-14T15:22:49;2.40;;;0.57;;
46983;SDS011;34732;52.112;9.366;2023-03-14T15:26:16;3.20;;;0.50;;
46983;SDS011;34732;52.112;9.366;2023-03-14T15:29:41;2.92;;;0.40;;
46983;SDS011;34732;52.112;9.366;2023-03-14T15:33:04;1.52;;;0.40;;
46983;SDS011;34732;52.112;9.366;2023-03-14T15:36:32;1.85;;;0.40;;
46983;SDS011;34732;52.112;9.366;2023-03-14T15:39:54;1.55;;;0.30;;
46983;SDS011;34732;52.112;9.366;2023-03-14T15:43:20;4.82;;;0.35;;
46983;SDS011;34732;52.112;9.366;2023-03-14T15:46:44;4.15;;;0.70;;
46983;SDS011;34732;52.112;9.366;2023-03-14T15:50:08;0.93;;;0.43;;
46983;SDS011;34732;52.112;9.366;2023-03-14T15:53:34;2.53;;;0.65;;
46983;SDS011;34732;52.112;9.366;2023-03-14T15:57:01;3.35;;;0.43;;
46983;SDS011;34732;52.112;9.366;2023-03-14T16:00:24;5.32;;;0.40;;
46983;SDS011;34732;52.112;9.366;2023-03-14T16:03:51;1.02;;;0.47;;
46983;SDS011;34732;52.112;9.366;2023-03-14T16:07:15;3.22;;;0.60;;
46983;SDS011;34732;52.112;9.366;2023-03-14T16:10:38;1.73;;;0.50;;
46983;SDS011;34732;52.112;9.366;2023-03-14T16:14:02;2.67;;;0.47;;
46983;SDS011;34732;52.112;9.366;2023-03-14T16:17:28;2.67;;;0.65;;
46983;SDS011;34732;52.112;9.366;2023-03-14T16:20:53;2.83;;;0.80;;
46983;SDS011;34732;52.112;9.366;2023-03-14T16:24:15;1.83;;;0.55;;
46983;SDS011;34732;52.112;9.366;2023-03-14T16:27:36;2.38;;;0.80;;
46983;SDS011;34732;52.112;9.366;2023-03-14T16:31:04;3.78;;;0.70;;
46983;SDS011;34732;52.112;9.366;2023-03-14T16:34:29;3.33;;;1.00;;
46983;SDS011;34732;52.112;9.366;2023-03-14T16:37:52;4.68;;;1.00;;
46983;SDS011;34732;52.112;9.366;2023-03-14T16:41:19;3.50;;;0.80;;
46983;SDS011;34732;52.112;9.366;2023-03-14T16:44:43;3.40;;;0.90;;
46983;SDS011;34732;52.112;9.366;2023-03-14T16:48:06;3.95;;;0.93;;
46983;SDS011;34732;52.112;9.366;2023-03-14T16:51:34;5.05;;;1.08;;
46983;SDS011;34732;52.112;9.366;2023-03-14T16:54:58;3.63;;;1.00;;
46983;SDS011;34732;52.112;9.366;2023-03-14T16:58:24;3.45;;;0.90;;
46983;SDS011;34732;52.112;9.366;2023-03-14T17:01:51;6.55;;;1.30;;
46983;SDS011;34732;52.112;9.366;2023-03-14T17:05:23;3.65;;;1.30;;
46983;SDS011;34732;52.112;9.366;2023-03-14T17:08:46;2.22;;;0.98;;
46983;SDS011;34732;52.112;9.366;2023-03-14T17:12:10;4.50;;;1.23;;
46983;SDS011;34732;52.112;9.366;2023-03-14T17:15:38;6.47;;;1.30;;
46983;SDS011;34732;52.112;9.366;2023-03-14T17:19:08;3.88;;;1.20;;
46983;SDS011;34732;52.112;9.366;2023-03-14T17:22:34;4.82;;;1.30;;
46983;SDS011;34732;52.112;9.366;2023-03-14T17:26:03;4.03;;;1.30;;
46983;SDS011;34732;52.112;9.366;2023-03-14T17:29:24;5.13;;;1.88;;
46983;SDS011;34732;52.112;9.366;2023-03-14T17:32:47;4.43;;;1.83;;
46983;SDS011;34732;52.112;9.366;2023-03-14T17:36:11;6.75;;;2.65;;
46983;SDS011;34732;52.112;9.366;2023-03-14T17:39:33;5.05;;;2.50;;
46983;SDS011;34732;52.112;9.366;2023-03-14T17:42:58;7.05;;;2.60;;
46983;SDS011;34732;52.112;9.366;2023-03-14T17:46:26;7.80;;;2.75;;
46983;SDS011;34732;52.112;9.366;2023-03-14T17:49:49;6.43;;;2.90;;
46983;SDS011;34732;52.112;9.366;2023-03-14T17:53:12;7.75;;;3.05;;
46983;SDS011;34732;52.112;9.366;2023-03-14T17:56:36;8.60;;;3.33;;
46983;SDS011;34732;52.112;9.366;2023-03-14T17:59:57;8.65;;;3.83;;
46983;SDS011;34732;52.112;9.366;2023-03-14T18:03:24;9.82;;;4.03;;
46983;SDS011;34732;52.112;9.366;2023-03-14T18:06:49;10.52;;;4.45;;
46983;SDS011;34732;52.112;9.366;2023-03-14T18:10:14;8.82;;;4.00;;
46983;SDS011;34732;52.112;9.366;2023-03-14T18:13:37;8.27;;;4.38;;
46983;SDS011;34732;52.112;9.366;2023-03-14T18:17:03;12.80;;;4.88;;
46983;SDS011;34732;52.112;9.366;2023-03-14T18:20:30;9.55;;;4.78;;
46983;SDS011;34732;52.112;9.366;2023-03-14T18:23:54;10.10;;;4.82;;
46983;SDS011;34732;52.112;9.366;2023-03-14T18:27:19;12.02;;;5.07;;
46983;SDS011;34732;52.112;9.366;2023-03-14T18:30:43;10.77;;;4.97;;
46983;SDS011;34732;52.112;9.366;2023-03-14T18:34:11;11.02;;;4.88;;
46983;SDS011;34732;52.112;9.366;2023-03-14T18:37:35;24.33;;;9.55;;
46983;SDS011;34732;52.112;9.366;2023-03-14T18:41:01;18.73;;;8.63;;
46983;SDS011;34732;52.112;9.366;2023-03-14T18:44:26;22.35;;;9.25;;
46983;SDS011;34732;52.112;9.366;2023-03-14T18:47:50;20.10;;;9.02;;
46983;SDS011;34732;52.112;9.366;2023-03-14T18:51:16;19.23;;;8.60;;
46983;SDS011;34732;52.112;9.366;2023-03-14T18:57:58;17.27;;;7.03;;
46983;SDS011;34732;52.112;9.366;2023-03-14T19:01:23;21.55;;;8.45;;
46983;SDS011;34732;52.112;9.366;2023-03-14T19:04:49;16.45;;;7.05;;
46983;SDS011;34732;52.112;9.366;2023-03-14T19:08:12;17.27;;;7.20;;
46983;SDS011;34732;52.112;9.366;2023-03-14T19:11:36;14.38;;;7.05;;
46983;SDS011;34732;52.112;9.366;2023-03-14T19:15:05;17.83;;;7.30;;
46983;SDS011;34732;52.112;9.366;2023-03-14T19:18:26;12.70;;;6.65;;
46983;SDS011;34732;52.112;9.366;2023-03-14T19:21:54;15.18;;;6.65;;
46983;SDS011;34732;52.112;9.366;2023-03-14T19:25:20;16.70;;;6.90;;
46983;SDS011;34732;52.112;9.366;2023-03-14T19:28:44;11.93;;;6.43;;
46983;SDS011;34732;52.112;9.366;2023-03-14T19:32:08;11.90;;;6.00;;
46983;SDS011;34732;52.112;9.366;2023-03-14T19:35:30;13.68;;;6.65;;
46983;SDS011;34732;52.112;9.366;2023-03-14T19:38:53;11.98;;;5.57;;
46983;SDS011;34732;52.112;9.366;2023-03-14T19:42:15;13.93;;;5.82;;
46983;SDS011;34732;52.112;9.366;2023-03-14T19:45:40;16.98;;;6.10;;
46983;SDS011;34732;52.112;9.366;2023-03-14T19:49:02;16.08;;;5.25;;
46983;SDS011;34732;52.112;9.366;2023-03-14T19:52:27;13.63;;;5.80;;
46983;SDS011;34732;52.112;9.366;2023-03-14T19:55:52;14.27;;;5.13;;
46983;SDS011;34732;52.112;9.366;2023-03-14T19:59:13;16.80;;;5.43;;
46983;SDS011;34732;52.112;9.366;2023-03-14T20:02:44;11.18;;;4.75;;
46983;SDS011;34732;52.112;9.366;2023-03-14T20:06:13;12.18;;;4.88;;
46983;SDS011;34732;52.112;9.366;2023-03-14T20:09:34;13.73;;;4.65;;
46983;SDS011;34732;52.112;9.366;2023-03-14T20:13:01;11.63;;;4.47;;
46983;SDS011;34732;52.112;9.366;2023-03-14T20:19:51;7.72;;;3.05;;
46983;SDS011;34732;52.112;9.366;2023-03-14T20:23:17;30.75;;;5.25;;
46983;SDS011;34732;52.112;9.366;2023-03-14T20:26:43;6.50;;;2.53;;
46983;SDS011;34732;52.112;9.366;2023-03-14T20:30:10;6.32;;;2.72;;
